sensor_id;sensor_type;location;lat;lon;timestamp;pressure;altitude;pressure_sealevel;temperature;humidity
35419;BME280;21525;41.240;16.500;2024-01-30T00:01:52;103284.63;;;14.08;58.22
35419;BME280;21525;41.240;16.500;2024-01-30T00:04:18;103290.09;;;13.65;59.61
35419;BME280;21525;41.240;16.500;2024-01-30T00:06:44;103281.03;;;14.02;59.10
35419;BME280;21525;41.240;16.500;2024-01-30T00:09:10;103281.75;;;13.90;59.35
35419;BME280;21525;41.240;16.500;2024-01-30T00:11:37;103282.59;;;13.88;59.77
35419;BME280;21525;41.240;16.500;2024-01-30T00:14:03;103282.66;;;13.35;61.95
35419;BME280;21525;41.240;16.500;2024-01-30T00:16:29;103283.88;;;13.05;62.07
35419;BME280;21525;41.240;16.500;2024-01-30T00:18:55;103290.94;;;13.11;62.81
35419;BME280;21525;41.240;16.500;2024-01-30T00:21:21;103280.84;;;13.87;61.37
35419;BME280;21525;41.240;16.500;2024-01-30T00:23:47;103289.16;;;13.58;62.02
35419;BME280;21525;41.240;16.500;2024-01-30T00:26:13;103288.56;;;13.79;61.13
35419;BME280;21525;41.240;16.500;2024-01-30T00:28:41;103288.56;;;13.79;61.71
35419;BME280;21525;41.240;16.500;2024-01-30T00:31:07;103295.94;;;13.47;62.47
35419;BME280;21525;41.240;16.500;2024-01-30T00:33:33;103289.38;;;13.19;63.06
35419;BME280;21525;41.240;16.500;2024-01-30T00:35:59;103284.25;;;13.24;63.42
35419;BME280;21525;41.240;16.500;2024-01-30T00:38:24;103291.34;;;12.84;65.35
35419;BME280;21525;41.240;16.500;2024-01-30T00:40:50;103285.47;;;12.96;64.03
35419;BME280;21525;41.240;16.500;2024-01-30T00:43:16;103295.91;;;12.96;64.94
35419;BME280;21525;41.240;16.500;2024-01-30T00:45:45;103296.19;;;13.11;64.04
35419;BME280;21525;41.240;16.500;2024-01-30T00:48:10;103293.00;;;13.26;63.75
35419;BME280;21525;41.240;16.500;2024-01-30T00:50:36;103296.47;;;13.26;64.24
35419;BME280;21525;41.240;16.500;2024-01-30T00:53:02;103294.91;;;13.37;62.89
35419;BME280;21525;41.240;16.500;2024-01-30T00:55:28;103287.34;;;13.04;64.81
35419;BME280;21525;41.240;16.500;2024-01-30T00:57:53;103287.72;;;13.23;64.36
35419;BME280;21525;41.240;16.500;2024-01-30T01:00:19;103293.56;;;13.62;63.23
35419;BME280;21525;41.240;16.500;2024-01-30T01:02:46;103287.88;;;13.35;63.31
35419;BME280;21525;41.240;16.500;2024-01-30T01:05:12;103280.69;;;13.76;63.22
35419;BME280;21525;41.240;16.500;2024-01-30T01:07:38;103288.31;;;13.09;64.07
35419;BME280;21525;41.240;16.500;2024-01-30T01:10:06;103283.78;;;13.49;62.76
35419;BME280;21525;41.240;16.500;2024-01-30T01:12:31;103276.53;;;13.33;63.02
35419;BME280;21525;41.240;16.500;2024-01-30T01:14:57;103277.16;;;13.74;63.20
35419;BME280;21525;41.240;16.500;2024-01-30T01:17:23;103272.22;;;13.94;61.11
35419;BME280;21525;41.240;16.500;2024-01-30T01:19:49;103275.78;;;14.00;60.88
35419;BME280;21525;41.240;16.500;2024-01-30T01:22:15;103274.00;;;13.99;61.59
35419;BME280;21525;41.240;16.500;2024-01-30T01:24:41;103269.41;;;13.80;61.70
35419;BME280;21525;41.240;16.500;2024-01-30T01:27:07;103267.81;;;13.34;62.82
35419;BME280;21525;41.240;16.500;2024-01-30T01:29:33;103267.03;;;13.98;61.61
35419;BME280;21525;41.240;16.500;2024-01-30T01:31:59;103264.16;;;13.78;61.46
35419;BME280;21525;41.240;16.500;2024-01-30T01:34:25;103256.75;;;14.13;60.93
35419;BME280;21525;41.240;16.500;2024-01-30T01:36:50;103256.75;;;14.13;61.51
35419;BME280;21525;41.240;16.500;2024-01-30T01:39:17;103259.72;;;13.17;64.25
35419;BME280;21525;41.240;16.500;2024-01-30T01:41:43;103253.84;;;13.30;63.95
35419;BME280;21525;41.240;16.500;2024-01-30T01:44:09;103254.06;;;13.44;63.74
35419;BME280;21525;41.240;16.500;2024-01-30T01:46:35;103258.88;;;13.75;62.94
35419;BME280;21525;41.240;16.500;2024-01-30T01:49:03;103254.94;;;13.44;63.53
35419;BME280;21525;41.240;16.500;2024-01-30T01:51:31;103255.44;;;13.78;62.13
35419;BME280;21525;41.240;16.500;2024-01-30T01:53:58;103247.34;;;13.61;63.54
35419;BME280;21525;41.240;16.500;2024-01-30T01:56:26;103244.63;;;13.02;66.07
35419;BME280;21525;41.240;16.500;2024-01-30T01:58:54;103247.00;;;13.38;63.96
35419;BME280;21525;41.240;16.500;2024-01-30T02:01:21;103247.72;;;12.80;66.87
35419;BME280;21525;41.240;16.500;2024-01-30T02:03:47;103249.28;;;12.70;66.89
35419;BME280;21525;41.240;16.500;2024-01-30T02:06:13;103243.34;;;13.27;66.79
35419;BME280;21525;41.240;16.500;2024-01-30T02:08:40;103241.03;;;12.94;66.28
35419;BME280;21525;41.240;16.500;2024-01-30T02:11:07;103242.34;;;13.19;65.71
35419;BME280;21525;41.240;16.500;2024-01-30T02:13:33;103239.69;;;12.69;66.55
35419;BME280;21525;41.240;16.500;2024-01-30T02:16:00;103233.78;;;13.88;63.84
35419;BME280;21525;41.240;16.500;2024-01-30T02:18:26;103237.16;;;13.81;63.85
35419;BME280;21525;41.240;16.500;2024-01-30T02:21:12;103238.88;;;13.20;65.73
35419;BME280;21525;41.240;16.500;2024-01-30T02:23:39;103236.38;;;13.28;66.00
35419;BME280;21525;41.240;16.500;2024-01-30T02:26:06;103229.81;;;13.54;65.28
35419;BME280;21525;41.240;16.500;2024-01-30T02:28:32;103235.69;;;13.41;65.11
35419;BME280;21525;41.240;16.500;2024-01-30T02:30:58;103238.31;;;13.41;65.39
35419;BME280;21525;41.240;16.500;2024-01-30T02:33:23;103244.47;;;13.44;65.09
35419;BME280;21525;41.240;16.500;2024-01-30T02:35:49;103236.06;;;13.67;65.47
35419;BME280;21525;41.240;16.500;2024-01-30T02:38:15;103240.44;;;13.12;66.84
35419;BME280;21525;41.240;16.500;2024-01-30T02:40:42;103236.00;;;13.08;66.85
35419;BME280;21525;41.240;16.500;2024-01-30T02:43:07;103233.44;;;13.65;65.40
35419;BME280;21525;41.240;16.500;2024-01-30T02:45:33;103232.09;;;13.31;67.05
35419;BME280;21525;41.240;16.500;2024-01-30T02:47:59;103230.28;;;13.27;67.15
35419;BME280;21525;41.240;16.500;2024-01-30T02:50:25;103232.91;;;13.88;65.39
35419;BME280;21525;41.240;16.500;2024-01-30T02:52:50;103228.97;;;13.57;66.27
35419;BME280;21525;41.240;16.500;2024-01-30T02:55:16;103237.34;;;13.34;66.97
35419;BME280;21525;41.240;16.500;2024-01-30T02:57:43;103228.84;;;13.49;66.33
35419;BME280;21525;41.240;16.500;2024-01-30T03:00:09;103229.06;;;13.63;65.64
35419;BME280;21525;41.240;16.500;2024-01-30T03:02:36;103227.16;;;12.97;68.11
35419;BME280;21525;41.240;16.500;2024-01-30T03:05:02;103227.31;;;13.09;69.19
35419;BME280;21525;41.240;16.500;2024-01-30T03:07:29;103218.66;;;13.11;69.00
35419;BME280;21525;41.240;16.500;2024-01-30T03:09:55;103203.53;;;13.45;68.05
35419;BME280;21525;41.240;16.500;2024-01-30T03:12:21;103214.19;;;13.59;67.47
35419;BME280;21525;41.240;16.500;2024-01-30T03:14:48;103215.25;;;13.73;68.28
35419;BME280;21525;41.240;16.500;2024-01-30T03:17:15;103207.69;;;13.97;67.23
35419;BME280;21525;41.240;16.500;2024-01-30T03:19:40;103212.28;;;14.13;66.31
35419;BME280;21525;41.240;16.500;2024-01-30T03:22:06;103213.41;;;13.64;67.63
35419;BME280;21525;41.240;16.500;2024-01-30T03:24:32;103210.41;;;14.03;67.76
35419;BME280;21525;41.240;16.500;2024-01-30T03:26:58;103207.56;;;14.62;65.17
35419;BME280;21525;41.240;16.500;2024-01-30T03:29:24;103208.00;;;14.22;65.81
35419;BME280;21525;41.240;16.500;2024-01-30T03:31:49;103206.34;;;14.28;64.89
35419;BME280;21525;41.240;16.500;2024-01-30T03:34:15;103202.41;;;14.68;64.18
35419;BME280;21525;41.240;16.500;2024-01-30T03:36:41;103202.84;;;14.28;64.36
35419;BME280;21525;41.240;16.500;2024-01-30T03:39:07;103206.91;;;14.82;64.24
35419;BME280;21525;41.240;16.500;2024-01-30T03:41:32;103197.41;;;14.11;65.62
35419;BME280;21525;41.240;16.500;2024-01-30T03:43:58;103204.56;;;14.26;66.75
35419;BME280;21525;41.240;16.500;2024-01-30T03:46:24;103205.47;;;14.31;66.16
35419;BME280;21525;41.240;16.500;2024-01-30T03:48:50;103200.47;;;14.49;65.30
35419;BME280;21525;41.240;16.500;2024-01-30T03:51:16;103192.88;;;14.76;63.84
35419;BME280;21525;41.240;16.500;2024-01-30T03:53:42;103207.41;;;14.44;65.42
35419;BME280;21525;41.240;16.500;2024-01-30T03:56:09;103203.19;;;14.57;64.65
35419;BME280;21525;41.240;16.500;2024-01-30T03:58:35;103195.53;;;14.79;64.06
35419;BME280;21525;41.240;16.500;2024-01-30T04:01:01;103196.81;;;14.36;64.34
35419;BME280;21525;41.240;16.500;2024-01-30T04:03:27;103193.63;;;14.60;64.35
35419;BME280;21525;41.240;16.500;2024-01-30T04:05:53;103199.50;;;14.41;65.61
35419;BME280;21525;41.240;16.500;2024-01-30T04:08:19;103202.53;;;14.03;66.43
35419;BME280;21525;41.240;16.500;2024-01-30T04:10:45;103196.31;;;13.92;67.24
35419;BME280;21525;41.240;16.500;2024-01-30T04:13:11;103195.59;;;14.07;66.62
35419;BME280;21525;41.240;16.500;2024-01-30T04:15:37;103192.63;;;14.49;65.62
35419;BME280;21525;41.240;16.500;2024-01-30T04:18:03;103189.78;;;14.34;65.06
35419;BME280;21525;41.240;16.500;2024-01-30T04:20:29;103193.72;;;14.72;65.08
35419;BME280;21525;41.240;16.500;2024-01-30T04:22:54;103185.50;;;14.39;63.97
35419;BME280;21525;41.240;16.500;2024-01-30T04:25:21;103193.81;;;14.83;63.86
35419;BME280;21525;41.240;16.500;2024-01-30T04:27:46;103198.47;;;14.30;65.86
35419;BME280;21525;41.240;16.500;2024-01-30T04:30:12;103196.09;;;14.47;65.31
35419;BME280;21525;41.240;16.500;2024-01-30T04:32:38;103198.44;;;14.24;67.51
35419;BME280;21525;41.240;16.500;2024-01-30T04:35:04;103196.53;;;14.10;66.46
35419;BME280;21525;41.240;16.500;2024-01-30T04:37:31;103190.94;;;13.80;68.50
35419;BME280;21525;41.240;16.500;2024-01-30T04:39:56;103188.41;;;13.88;68.95
35419;BME280;21525;41.240;16.500;2024-01-30T04:42:22;103193.75;;;13.33;69.53
35419;BME280;21525;41.240;16.500;2024-01-30T04:44:48;103198.22;;;14.07;67.68
35419;BME280;21525;41.240;16.500;2024-01-30T04:47:14;103194.97;;;14.25;67.71
35419;BME280;21525;41.240;16.500;2024-01-30T04:49:40;103197.09;;;13.85;68.19
35419;BME280;21525;41.240;16.500;2024-01-30T04:52:07;103191.53;;;14.33;66.29
35419;BME280;21525;41.240;16.500;2024-01-30T04:54:33;103197.84;;;13.75;68.80
35419;BME280;21525;41.240;16.500;2024-01-30T04:57:00;103202.19;;;13.74;68.14
35419;BME280;21525;41.240;16.500;2024-01-30T04:59:26;103207.38;;;14.42;65.67
35419;BME280;21525;41.240;16.500;2024-01-30T05:01:52;103212.19;;;14.07;66.90
35419;BME280;21525;41.240;16.500;2024-01-30T05:04:18;103207.16;;;14.23;67.28
35419;BME280;21525;41.240;16.500;2024-01-30T05:06:43;103216.16;;;13.76;68.29
35419;BME280;21525;41.240;16.500;2024-01-30T05:09:09;103217.94;;;13.79;67.34
35419;BME280;21525;41.240;16.500;2024-01-30T05:11:38;103221.00;;;14.14;65.75
35419;BME280;21525;41.240;16.500;2024-01-30T05:14:05;103214.16;;;13.57;66.98
35419;BME280;21525;41.240;16.500;2024-01-30T05:16:31;103215.00;;;13.55;67.07
35419;BME280;21525;41.240;16.500;2024-01-30T05:18:58;103210.47;;;14.09;66.18
35419;BME280;21525;41.240;16.500;2024-01-30T05:21:24;103215.88;;;13.55;67.76
35419;BME280;21525;41.240;16.500;2024-01-30T05:23:49;103214.94;;;14.18;66.00
35419;BME280;21525;41.240;16.500;2024-01-30T05:26:15;103220.81;;;14.00;65.36
35419;BME280;21525;41.240;16.500;2024-01-30T05:28:41;103225.81;;;13.81;67.57
35419;BME280;21525;41.240;16.500;2024-01-30T05:31:07;103227.59;;;13.83;66.71
35419;BME280;21525;41.240;16.500;2024-01-30T05:33:33;103224.53;;;14.18;64.72
35419;BME280;21525;41.240;16.500;2024-01-30T05:35:59;103238.25;;;13.36;66.88
35419;BME280;21525;41.240;16.500;2024-01-30T05:38:25;103246.19;;;13.42;66.97
35419;BME280;21525;41.240;16.500;2024-01-30T05:40:50;103250.63;;;13.48;67.04
35419;BME280;21525;41.240;16.500;2024-01-30T05:43:17;103244.31;;;13.97;66.32
35419;BME280;21525;41.240;16.500;2024-01-30T05:45:43;103247.63;;;13.81;66.71
35419;BME280;21525;41.240;16.500;2024-01-30T05:48:08;103243.75;;;14.20;64.21
35419;BME280;21525;41.240;16.500;2024-01-30T05:50:34;103240.63;;;13.80;65.40
35419;BME280;21525;41.240;16.500;2024-01-30T05:53:00;103249.44;;;13.85;64.69
35419;BME280;21525;41.240;16.500;2024-01-30T05:55:26;103247.72;;;13.87;65.08
35419;BME280;21525;41.240;16.500;2024-01-30T05:57:51;103255.66;;;13.95;66.55
35419;BME280;21525;41.240;16.500;2024-01-30T06:00:18;103260.25;;;13.51;66.76
35419;BME280;21525;41.240;16.500;2024-01-30T06:02:44;103249.63;;;14.02;65.57
35419;BME280;21525;41.240;16.500;2024-01-30T06:05:09;103260.44;;;14.26;64.37
35419;BME280;21525;41.240;16.500;2024-01-30T06:07:35;103261.41;;;13.71;65.10
35419;BME280;21525;41.240;16.500;2024-01-30T06:10:01;103270.97;;;13.69;66.19
35419;BME280;21525;41.240;16.500;2024-01-30T06:12:27;103276.13;;;13.61;66.05
35419;BME280;21525;41.240;16.500;2024-01-30T06:14:54;103278.38;;;13.99;65.41
35419;BME280;21525;41.240;16.500;2024-01-30T06:17:22;103283.47;;;13.87;65.05
35419;BME280;21525;41.240;16.500;2024-01-30T06:19:48;103294.97;;;13.42;65.68
35419;BME280;21525;41.240;16.500;2024-01-30T06:22:15;103290.41;;;13.85;65.45
35419;BME280;21525;41.240;16.500;2024-01-30T06:24:41;103296.81;;;14.06;64.70
35419;BME280;21525;41.240;16.500;2024-01-30T06:27:07;103305.38;;;13.95;64.83
35419;BME280;21525;41.240;16.500;2024-01-30T06:29:32;103302.41;;;14.35;63.76
35419;BME280;21525;41.240;16.500;2024-01-30T06:31:59;103302.28;;;14.25;63.63
35419;BME280;21525;41.240;16.500;2024-01-30T06:34:24;103304.94;;;14.28;63.64
35419;BME280;21525;41.240;16.500;2024-01-30T06:36:52;103307.09;;;14.62;62.75
35419;BME280;21525;41.240;16.500;2024-01-30T06:39:18;103297.72;;;14.79;62.33
35419;BME280;21525;41.240;16.500;2024-01-30T06:41:43;103303.47;;;15.36;61.21
35419;BME280;21525;41.240;16.500;2024-01-30T06:44:12;103307.00;;;15.39;60.11
35419;BME280;21525;41.240;16.500;2024-01-30T06:46:38;103306.00;;;15.25;60.91
35419;BME280;21525;41.240;16.500;2024-01-30T06:49:04;103308.34;;;14.98;60.89
35419;BME280;21525;41.240;16.500;2024-01-30T06:51:30;103310.66;;;15.60;59.10
35419;BME280;21525;41.240;16.500;2024-01-30T06:53:56;103305.00;;;16.43;57.41
35419;BME280;21525;41.240;16.500;2024-01-30T06:56:22;103318.34;;;15.40;59.36
35419;BME280;21525;41.240;16.500;2024-01-30T06:58:49;103309.53;;;16.87;56.29
35419;BME280;21525;41.240;16.500;2024-01-30T07:01:16;103315.09;;;15.67;57.13
35419;BME280;21525;41.240;16.500;2024-01-30T07:03:42;103314.53;;;16.18;56.52
35419;BME280;21525;41.240;16.500;2024-01-30T07:06:09;103312.59;;;15.84;58.00
35419;BME280;21525;41.240;16.500;2024-01-30T07:08:36;103320.97;;;15.40;58.79
35419;BME280;21525;41.240;16.500;2024-01-30T07:11:07;103321.53;;;16.16;57.47
35419;BME280;21525;41.240;16.500;2024-01-30T07:13:34;103319.44;;;15.63;58.00
35419;BME280;21525;41.240;16.500;2024-01-30T07:16:00;103319.38;;;15.56;58.58
35419;BME280;21525;41.240;16.500;2024-01-30T07:18:25;103317.91;;;16.00;57.17
35419;BME280;21525;41.240;16.500;2024-01-30T07:20:51;103333.19;;;15.38;58.23
35419;BME280;21525;41.240;16.500;2024-01-30T07:23:17;103330.28;;;15.06;58.42
35419;BME280;21525;41.240;16.500;2024-01-30T07:25:44;103333.28;;;14.58;60.45
35419;BME280;21525;41.240;16.500;2024-01-30T07:28:10;103330.47;;;15.27;59.55
35419;BME280;21525;41.240;16.500;2024-01-30T07:30:37;103338.44;;;15.38;58.17
35419;BME280;21525;41.240;16.500;2024-01-30T07:33:04;103335.94;;;15.52;58.28
35419;BME280;21525;41.240;16.500;2024-01-30T07:35:30;103337.84;;;15.71;57.81
35419;BME280;21525;41.240;16.500;2024-01-30T07:37:56;103337.97;;;15.86;57.29
35419;BME280;21525;41.240;16.500;2024-01-30T07:40:22;103340.03;;;16.45;55.58
35419;BME280;21525;41.240;16.500;2024-01-30T07:42:48;103347.78;;;16.15;56.70
35419;BME280;21525;41.240;16.500;2024-01-30T07:45:14;103351.97;;;15.85;56.99
35419;BME280;21525;41.240;16.500;2024-01-30T07:47:40;103359.44;;;15.38;58.02
35419;BME280;21525;41.240;16.500;2024-01-30T07:50:06;103367.59;;;15.70;57.65
35419;BME280;21525;41.240;16.500;2024-01-30T07:52:32;103364.41;;;16.17;56.24
35419;BME280;21525;41.240;16.500;2024-01-30T07:54:57;103360.16;;;16.41;55.61
35419;BME280;21525;41.240;16.500;2024-01-30T07:57:23;103360.06;;;16.25;56.07
35419;BME280;21525;41.240;16.500;2024-01-30T07:59:50;103360.34;;;16.96;54.52
35419;BME280;21525;41.240;16.500;2024-01-30T08:02:16;103357.50;;;16.38;54.85
35419;BME280;21525;41.240;16.500;2024-01-30T08:04:43;103362.75;;;16.37;54.68
35419;BME280;21525;41.240;16.500;2024-01-30T08:07:08;103365.31;;;16.26;55.33
35419;BME280;21525;41.240;16.500;2024-01-30T08:09:34;103360.03;;;16.17;55.82
35419;BME280;21525;41.240;16.500;2024-01-30T08:12:00;103371.53;;;16.39;55.25
35419;BME280;21525;41.240;16.500;2024-01-30T08:14:27;103370.47;;;16.05;55.04
35419;BME280;21525;41.240;16.500;2024-01-30T08:16:53;103377.53;;;16.17;55.81
35419;BME280;21525;41.240;16.500;2024-01-30T08:19:19;103373.56;;;17.19;53.73
35419;BME280;21525;41.240;16.500;2024-01-30T08:21:45;103365.69;;;19.65;49.33
35419;BME280;21525;41.240;16.500;2024-01-30T08:24:11;103371.16;;;19.37;48.20
35419;BME280;21525;41.240;16.500;2024-01-30T08:26:37;103371.69;;;19.81;48.18
35419;BME280;21525;41.240;16.500;2024-01-30T08:29:03;103371.34;;;19.16;48.09
35419;BME280;21525;41.240;16.500;2024-01-30T08:31:29;103365.44;;;18.59;48.61
35419;BME280;21525;41.240;16.500;2024-01-30T08:33:55;103377.97;;;17.92;50.34
35419;BME280;21525;41.240;16.500;2024-01-30T08:36:21;103376.19;;;17.88;50.55
35419;BME280;21525;41.240;16.500;2024-01-30T08:38:47;103371.72;;;18.37;50.23
35419;BME280;21525;41.240;16.500;2024-01-30T08:41:12;103383.25;;;17.79;50.97
35419;BME280;21525;41.240;16.500;2024-01-30T08:43:38;103378.75;;;18.29;50.11
35419;BME280;21525;41.240;16.500;2024-01-30T08:46:04;103378.75;;;18.23;50.16
35419;BME280;21525;41.240;16.500;2024-01-30T08:48:30;103379.63;;;18.26;50.01
35419;BME280;21525;41.240;16.500;2024-01-30T08:50:56;103388.47;;;18.16;49.60
35419;BME280;21525;41.240;16.500;2024-01-30T08:53:22;103375.22;;;18.36;49.59
35419;BME280;21525;41.240;16.500;2024-01-30T08:55:47;103380.50;;;18.36;49.59
35419;BME280;21525;41.240;16.500;2024-01-30T08:58:13;103383.09;;;18.51;48.98
35419;BME280;21525;41.240;16.500;2024-01-30T09:00:40;103383.91;;;18.53;48.96
35419;BME280;21525;41.240;16.500;2024-01-30T09:03:06;103388.16;;;18.95;48.84
35419;BME280;21525;41.240;16.500;2024-01-30T09:05:32;103381.78;;;19.25;47.86
35419;BME280;21525;41.240;16.500;2024-01-30T09:07:58;103398.50;;;19.29;48.13
35419;BME280;21525;41.240;16.500;2024-01-30T09:10:23;103393.19;;;19.30;47.76
35419;BME280;21525;41.240;16.500;2024-01-30T09:12:49;103389.13;;;18.79;48.23
35419;BME280;21525;41.240;16.500;2024-01-30T09:15:15;103396.91;;;19.03;48.14
35419;BME280;21525;41.240;16.500;2024-01-30T09:17:41;103390.41;;;19.50;47.34
35419;BME280;21525;41.240;16.500;2024-01-30T09:20:07;103401.78;;;19.60;46.94
35419;BME280;21525;41.240;16.500;2024-01-30T09:22:32;103392.97;;;19.65;46.65
35419;BME280;21525;41.240;16.500;2024-01-30T09:24:58;103387.00;;;20.31;45.53
35419;BME280;21525;41.240;16.500;2024-01-30T09:27:24;103392.97;;;21.12;44.84
35419;BME280;21525;41.240;16.500;2024-01-30T09:29:50;103384.75;;;21.34;45.34
35419;BME280;21525;41.240;16.500;2024-01-30T09:32:16;103383.19;;;21.19;44.18
35419;BME280;21525;41.240;16.500;2024-01-30T09:34:43;103385.38;;;21.48;43.58
35419;BME280;21525;41.240;16.500;2024-01-30T09:37:09;103387.97;;;21.53;43.45
35419;BME280;21525;41.240;16.500;2024-01-30T09:39:35;103398.78;;;21.40;43.70
35419;BME280;21525;41.240;16.500;2024-01-30T09:42:07;103386.47;;;20.76;43.77
35419;BME280;21525;41.240;16.500;2024-01-30T09:44:38;103379.59;;;21.77;43.46
35419;BME280;21525;41.240;16.500;2024-01-30T09:47:04;103379.66;;;21.19;43.46
35419;BME280;21525;41.240;16.500;2024-01-30T09:49:34;103386.69;;;21.20;43.76
35419;BME280;21525;41.240;16.500;2024-01-30T09:52:05;103386.19;;;20.96;43.82
35419;BME280;21525;41.240;16.500;2024-01-30T09:54:31;103383.94;;;21.30;43.27
35419;BME280;21525;41.240;16.500;2024-01-30T09:56:58;103376.81;;;21.34;43.22
35419;BME280;21525;41.240;16.500;2024-01-30T09:59:24;103377.22;;;21.62;42.62
35419;BME280;21525;41.240;16.500;2024-01-30T10:01:50;103368.09;;;22.26;41.85
35419;BME280;21525;41.240;16.500;2024-01-30T10:04:16;103374.00;;;22.40;41.44
35419;BME280;21525;41.240;16.500;2024-01-30T10:06:41;103362.81;;;22.24;42.14
35419;BME280;21525;41.240;16.500;2024-01-30T10:09:07;103365.16;;;22.41;41.32
35419;BME280;21525;41.240;16.500;2024-01-30T10:11:36;103362.69;;;22.32;41.66
35419;BME280;21525;41.240;16.500;2024-01-30T10:14:02;103364.50;;;21.80;41.92
35419;BME280;21525;41.240;16.500;2024-01-30T10:16:28;103354.00;;;22.65;41.66
35419;BME280;21525;41.240;16.500;2024-01-30T10:18:53;103359.22;;;22.28;41.77
35419;BME280;21525;41.240;16.500;2024-01-30T10:21:19;103364.22;;;21.97;42.33
35419;BME280;21525;41.240;16.500;2024-01-30T10:23:45;103364.00;;;22.09;42.17
35419;BME280;21525;41.240;16.500;2024-01-30T10:26:11;103355.56;;;22.34;41.93
35419;BME280;21525;41.240;16.500;2024-01-30T10:28:36;103347.34;;;22.46;41.50
35419;BME280;21525;41.240;16.500;2024-01-30T10:31:02;103360.59;;;22.04;41.81
35419;BME280;21525;41.240;16.500;2024-01-30T10:33:32;103354.84;;;21.78;41.96
35419;BME280;21525;41.240;16.500;2024-01-30T10:36:01;103346.59;;;22.81;41.32
35419;BME280;21525;41.240;16.500;2024-01-30T10:38:31;103351.38;;;22.64;40.78
35419;BME280;21525;41.240;16.500;2024-01-30T10:40:59;103346.50;;;22.44;41.65
35419;BME280;21525;41.240;16.500;2024-01-30T10:43:41;103347.28;;;21.57;43.05
35419;BME280;21525;41.240;16.500;2024-01-30T10:46:15;103340.47;;;22.37;42.30
35419;BME280;21525;41.240;16.500;2024-01-30T10:48:43;103337.97;;;21.34;44.10
35419;BME280;21525;41.240;16.500;2024-01-30T10:51:13;103333.16;;;22.07;46.29
35419;BME280;21525;41.240;16.500;2024-01-30T10:53:39;103330.31;;;21.68;43.78
35419;BME280;21525;41.240;16.500;2024-01-30T10:56:08;103334.69;;;21.71;43.70
35419;BME280;21525;41.240;16.500;2024-01-30T10:58:34;103321.88;;;21.94;42.56
35419;BME280;21525;41.240;16.500;2024-01-30T11:01:00;103320.59;;;21.69;43.46
35419;BME280;21525;41.240;16.500;2024-01-30T11:03:26;103324.66;;;21.40;43.35
35419;BME280;21525;41.240;16.500;2024-01-30T11:05:52;103321.09;;;20.83;44.96
35419;BME280;21525;41.240;16.500;2024-01-30T11:08:25;103320.03;;;21.50;43.79
35419;BME280;21525;41.240;16.500;2024-01-30T11:10:57;103316.41;;;21.56;43.24
35419;BME280;21525;41.240;16.500;2024-01-30T11:13:30;103317.59;;;20.83;44.41
35419;BME280;21525;41.240;16.500;2024-01-30T11:16:15;103316.59;;;20.90;45.27
35419;BME280;21525;41.240;16.500;2024-01-30T11:18:41;103311.91;;;21.10;45.14
35419;BME280;21525;41.240;16.500;2024-01-30T11:21:07;103306.44;;;21.18;44.33
35419;BME280;21525;41.240;16.500;2024-01-30T11:23:34;103301.84;;;20.06;46.34
35419;BME280;21525;41.240;16.500;2024-01-30T11:26:00;103300.44;;;20.48;45.31
35419;BME280;21525;41.240;16.500;2024-01-30T11:28:33;103289.94;;;20.45;45.44
35419;BME280;21525;41.240;16.500;2024-01-30T11:31:04;103291.69;;;20.46;45.45
35419;BME280;21525;41.240;16.500;2024-01-30T11:33:30;103295.88;;;19.89;46.35
35419;BME280;21525;41.240;16.500;2024-01-30T11:36:00;103293.97;;;20.03;47.02
35419;BME280;21525;41.240;16.500;2024-01-30T11:38:27;103291.69;;;19.71;47.92
35419;BME280;21525;41.240;16.500;2024-01-30T11:40:54;103301.41;;;18.46;51.17
35419;BME280;21525;41.240;16.500;2024-01-30T11:43:21;103292.66;;;19.62;48.36
35419;BME280;21525;41.240;16.500;2024-01-30T11:45:47;103294.44;;;20.38;46.88
35419;BME280;21525;41.240;16.500;2024-01-30T11:48:13;103286.97;;;19.97;47.08
35419;BME280;21525;41.240;16.500;2024-01-30T11:50:39;103283.97;;;19.48;48.67
35419;BME280;21525;41.240;16.500;2024-01-30T11:53:06;103282.88;;;18.60;49.99
35419;BME280;21525;41.240;16.500;2024-01-30T11:55:33;103279.03;;;19.11;49.21
35419;BME280;21525;41.240;16.500;2024-01-30T11:57:59;103292.03;;;17.50;51.25
35419;BME280;21525;41.240;16.500;2024-01-30T12:00:25;103289.34;;;16.72;53.65
35419;BME280;21525;41.240;16.500;2024-01-30T12:02:52;103296.25;;;16.44;54.48
35419;BME280;21525;41.240;16.500;2024-01-30T12:05:28;103289.38;;;16.84;54.35
35419;BME280;21525;41.240;16.500;2024-01-30T12:07:54;103288.50;;;17.37;52.05
35419;BME280;21525;41.240;16.500;2024-01-30T12:10:20;103280.31;;;18.50;49.90
35419;BME280;21525;41.240;16.500;2024-01-30T12:12:47;103282.88;;;18.57;50.40
35419;BME280;21525;41.240;16.500;2024-01-30T12:15:14;103285.00;;;17.29;52.02
35419;BME280;21525;41.240;16.500;2024-01-30T12:17:41;103276.09;;;18.04;51.72
35419;BME280;21525;41.240;16.500;2024-01-30T12:22:39;103282.38;;;17.09;53.11
35419;BME280;21525;41.240;16.500;2024-01-30T12:25:09;103281.47;;;17.57;53.29
35419;BME280;21525;41.240;16.500;2024-01-30T12:27:36;103275.25;;;16.50;54.61
35419;BME280;21525;41.240;16.500;2024-01-30T12:30:08;103278.88;;;17.04;53.63
35419;BME280;21525;41.240;16.500;2024-01-30T12:32:35;103269.03;;;18.17;51.99
35419;BME280;21525;41.240;16.500;2024-01-30T12:35:02;103265.69;;;16.72;52.24
35419;BME280;21525;41.240;16.500;2024-01-30T12:37:28;103268.13;;;16.12;53.92
35419;BME280;21525;41.240;16.500;2024-01-30T12:39:56;103260.47;;;16.89;52.67